Aeroporto :
LOGIN :

Iscrizione | Disclaimer

   EN    FR    IT 

 










Sommario :    VFR   VFR Marginale   IFR   IFR Intensivo   IFR Molto Intensivo
Visibilità : 
Base nubi : 
>= 8 km
>= 3000ft
5 / 8 km
1000 / 3000 ft
1500m / 5 km
500 / 1000 ft
800 / 1500m
200 / 500 ft
< 800m
< 200 ft
Simboli :   Temporali  Nebbia  Neve Forte  Precipitazioni Forti  Vento > 20 kt
SIGMETs :   Varie  Temporali  Ghiacco  Turbolenza  Onda orograficha  Ceneri Vulcaniche






- Altitudine del aeroporto : 755 ft
- Codice IATA : KSC


LZKZ - Kosice

ULTIMO METAR :
  • 070130Z 19008KT 8000 OVC009 M04/M04 Q1019

METARs OBSOLETI :
  • 070100Z 18007KT 7000 FEW006 OVC011 M03/M04 Q1019
  • 070030Z 19007KT 7000 OVC006 M03/M04 Q1020
  • 070000Z 18008KT 6000 FEW005 OVC009 M04/M04 Q1020
  • 062330Z 18008KT 6000 FEW004 OVC007 M03/M04 Q1020
  • 062300Z 18009KT 7000 OVC005 M03/M04 Q1020

TAF TAF LZKZ
Valido dal 07 a 00 ore il 08 a 00 ore UTC


062300Z 0700/0800 21008KT 7000 OVC006
TEMPO 0700/0708 20003KT 1400 BCFG SCT001 OVC004
PROB40
TEMPO 0703/0707 0500 FZFG OVC001
BECMG 0708/0710 9999 BKN014
BECMG 0714/0716 VRB02KT 4000 BR SCT005 BKN009
PROB40
TEMPO 0718/0800 0500 FZFG OVC004



MetMap, La meteo Aeronautica in un colpo d'occhio ! - Copyright ORBIFLY Dicembre 2007 - Disclaimer

ORBIFLY MET'MAP TEAM :

Programmazione e sviluppo : Alexandra Zaïnal
Concezione : Baudouin d'Aumeries
Aiuto per la programmazione : Marc-Olivier Méhu
Supporto tecnico e logistico : Manuel Goepfert
Aiuto per la traduzione : Arnaldo La Scala

Contatto : metmap@orbifly.com




FONTI E CREDITI :

   NOAA